Time;durP1;ratioP1;P1;durP2;ratioP2;P2;SDS_P1;SDS_P2;PMS_P1;PMS_P2;Temp;Humidity;BMP_temperature;BMP_pressure;BME280_temperature;BME280_humidity;BME280_pressure;Samples;Min_cycle;Max_cycle;Signal;HPM_P1;HPM_P2
2021/06/04 00:02:05;;;;;;;11.88;7.05;;;14.00;99.90;;;;;;5011724;28;20467;-78
2021/06/04 00:04:31;;;;;;;17.90;7.68;;;13.90;99.90;;;;;;5012893;28;20022;-79
2021/06/04 00:06:57;;;;;;;14.02;8.15;;;13.90;99.90;;;;;;5012560;28;20026;-79
2021/06/04 00:09:23;;;;;;;19.35;8.20;;;13.90;99.90;;;;;;5013226;28;20045;-79
2021/06/04 00:11:52;;;;;;;18.60;9.02;;;13.80;99.90;;;;;;5012892;28;20030;-79
2021/06/04 00:14:26;;;;;;;15.77;8.65;;;13.80;99.90;;;;;;5012316;28;20014;-79
2021/06/04 00:16:53;;;;;;;;;;;13.70;99.90;;;;;;5009059;28;20557;-79
2021/06/04 00:19:21;;;;;;;22.63;9.68;;;13.70;99.90;;;;;;4993304;28;19913;-79
2021/06/04 00:21:51;;;;;;;15.77;9.07;;;13.70;99.90;;;;;;4993250;28;20032;-79
2021/06/04 00:24:18;;;;;;;18.25;9.43;;;13.60;99.90;;;;;;4992822;28;20034;-79
2021/06/04 00:26:45;;;;;;;21.13;10.57;;;13.60;99.90;;;;;;5008859;28;20526;-79
2021/06/04 00:29:12;;;;;;;16.88;9.40;;;13.60;99.90;;;;;;5012748;28;20030;-79
2021/06/04 00:31:38;;;;;;;16.45;9.27;;;13.50;99.90;;;;;;5012397;28;20029;-79
2021/06/04 00:34:06;;;;;;;16.50;8.60;;;13.50;99.90;;;;;;5011954;28;20026;-79
2021/06/04 00:36:32;;;;;;;18.20;9.23;;;13.50;99.90;;;;;;5012105;28;20510;-79
2021/06/04 00:38:59;;;;;;;18.77;9.50;;;13.40;99.90;;;;;;5010894;28;20402;-79
2021/06/04 00:41:29;;;;;;;18.83;8.52;;;13.40;99.90;;;;;;5012044;28;20025;-79
2021/06/04 00:43:56;;;;;;;22.80;9.65;;;13.30;99.90;;;;;;5012279;28;20499;-79
2021/06/04 00:46:22;;;;;;;21.98;10.82;;;13.30;99.90;;;;;;5012420;28;20395;-79
2021/06/04 00:48:49;;;;;;;15.40;10.15;;;13.40;99.90;;;;;;5012436;28;20033;-79
2021/06/04 00:51:25;;;;;;;17.83;8.70;;;13.40;99.90;;;;;;5012190;28;20026;-79
2021/06/04 00:53:53;;;;;;;14.32;10.05;;;13.40;99.90;;;;;;5011865;28;20025;-79
2021/06/04 00:56:23;;;;;;;18.67;9.60;;;13.40;99.90;;;;;;5011702;28;20030;-79
2021/06/04 00:58:50;;;;;;;23.08;9.77;;;13.40;99.90;;;;;;5012185;28;20026;-78
2021/06/04 01:01:20;;;;;;;13.15;8.88;;;13.30;99.90;;;;;;5014992;28;20125;-78
2021/06/04 01:03:53;;;;;;;18.95;8.98;;;13.30;99.90;;;;;;5015742;28;20036;-79
2021/06/04 01:06:43;;;;;;;15.50;9.05;;;13.20;99.90;;;;;;5014249;28;20490;-79
2021/06/04 01:09:30;;;;;;;13.15;8.88;;;13.20;99.90;;;;;;5015429;28;20049;-78
2021/06/04 01:12:01;;;;;;;18.75;9.80;;;13.20;99.90;;;;;;5015853;28;20040;-78
2021/06/04 01:14:38;;;;;;;23.02;9.52;;;13.10;99.90;;;;;;5015672;28;20386;-78
2021/06/04 01:17:09;;;;;;;15.60;10.45;;;13.10;99.90;;;;;;5015142;28;20088;-79
2021/06/04 01:19:51;;;;;;;18.77;11.40;;;13.10;99.90;;;;;;5014563;28;20026;-79
2021/06/04 01:22:50;;;;;;;22.85;10.70;;;13.10;99.90;;;;;;5015556;28;20394;-79
2021/06/04 01:25:30;;;;;;;15.13;10.73;;;13.20;99.90;;;;;;4993848;28;20052;-79
2021/06/04 01:27:59;;;;;;;17.40;10.43;;;13.10;99.90;;;;;;5015635;28;20061;-79
2021/06/04 01:30:33;;;;;;;16.88;11.15;;;13.10;99.90;;;;;;5013775;28;20034;-79
2021/06/04 01:33:07;;;;;;;23.77;10.80;;;13.10;99.90;;;;;;5013967;28;20482;-79
2021/06/04 01:35:36;;;;;;;;;;;13.10;99.90;;;;;;5015090;28;20026;-79
2021/06/04 01:38:03;;;;;;;26.63;12.13;;;13.10;99.90;;;;;;5015222;28;19913;-79
2021/06/04 01:40:30;;;;;;;21.50;12.50;;;13.10;99.90;;;;;;5015724;28;20113;-78
2021/06/04 01:42:58;;;;;;;18.42;12.43;;;13.10;99.90;;;;;;5015660;28;20477;-78
2021/06/04 01:45:41;;;;;;;18.67;12.57;;;13.20;99.90;;;;;;5013266;28;20022;-78
2021/06/04 01:48:11;;;;;;;20.70;12.80;;;13.10;99.90;;;;;;5013971;28;20034;-79
2021/06/04 01:50:46;;;;;;;21.83;13.63;;;13.20;99.90;;;;;;5015752;28;20025;-79
2021/06/04 01:53:17;;;;;;;18.17;13.85;;;13.20;99.90;;;;;;5013700;28;20029;-79
2021/06/04 01:55:48;;;;;;;28.25;13.55;;;13.20;99.90;;;;;;5014640;28;20487;-79
2021/06/04 01:58:21;;;;;;;24.33;15.18;;;13.20;99.90;;;;;;5014976;28;20498;-78
2021/06/04 02:00:55;;;;;;;21.58;14.98;;;13.30;99.90;;;;;;5014756;28;20395;-79
2021/06/04 02:03:23;;;;;;;32.75;14.88;;;13.30;99.90;;;;;;5014704;28;20057;-79
2021/06/04 02:05:51;;;;;;;27.45;14.57;;;13.40;99.90;;;;;;5014238;28;20025;-79
2021/06/04 02:08:32;;;;;;;18.80;13.90;;;13.30;99.90;;;;;;5014532;28;20034;-79
2021/06/04 02:10:58;;;;;;;23.30;14.50;;;13.40;99.90;;;;;;5014262;28;20040;-79
2021/06/04 02:13:25;;;;;;;23.92;13.90;;;13.40;99.90;;;;;;5013357;28;20028;-79
2021/06/04 02:16:08;;;;;;;24.63;15.25;;;13.50;99.90;;;;;;5014020;28;20527;-79
2021/06/04 02:18:50;;;;;;;26.65;13.80;;;13.50;99.90;;;;;;5014445;28;20125;-79
2021/06/04 02:21:21;;;;;;;26.20;15.30;;;13.60;99.90;;;;;;5014216;28;20084;-79
2021/06/04 02:23:53;;;;;;;25.92;14.35;;;13.60;99.90;;;;;;5012997;28;20033;-79
2021/06/04 02:26:28;;;;;;;24.95;14.00;;;13.60;99.90;;;;;;5014054;28;20029;-79
2021/06/04 02:29:19;;;;;;;19.95;14.90;;;13.60;99.90;;;;;;5014307;28;20034;-79
2021/06/04 02:31:53;;;;;;;33.63;14.35;;;13.80;99.90;;;;;;5013984;28;20144;-79
2021/06/04 02:34:30;;;;;;;19.83;14.15;;;13.70;99.90;;;;;;5013955;28;20108;-79
2021/06/04 02:36:59;;;;;;;24.25;14.82;;;13.80;99.90;;;;;;5013477;28;20187;-79
2021/06/04 02:39:35;;;;;;;21.08;13.43;;;13.80;99.90;;;;;;5014069;28;20497;-79
2021/06/04 02:42:14;;;;;;;22.33;13.73;;;13.80;99.90;;;;;;5014012;28;20060;-79
2021/06/04 02:45:05;;;;;;;21.25;13.70;;;13.80;99.90;;;;;;5013518;28;20018;-79
2021/06/04 02:47:36;;;;;;;29.58;14.65;;;13.80;99.90;;;;;;5012520;28;20028;-79
2021/06/04 02:50:11;;;;;;;22.42;13.40;;;13.80;99.90;;;;;;5013516;28;20026;-79
2021/06/04 02:52:43;;;;;;;24.60;13.63;;;13.80;99.90;;;;;;5011300;28;20057;-79
2021/06/04 02:55:13;;;;;;;21.00;13.48;;;13.80;99.90;;;;;;5013064;28;20034;-78
2021/06/04 02:57:39;;;;;;;19.55;12.52;;;13.90;99.90;;;;;;5012381;28;20022;-78
2021/06/04 03:00:12;;;;;;;24.23;14.38;;;13.90;99.90;;;;;;5012255;28;20022;-79
2021/06/04 03:02:38;;;;;;;31.20;14.05;;;13.90;99.90;;;;;;5013807;28;20026;-78
2021/06/04 03:05:10;;;;;;;32.20;14.93;;;14.00;99.90;;;;;;5013467;28;20032;-79
2021/06/04 03:07:39;;;;;;;24.73;14.88;;;14.00;99.90;;;;;;5009137;28;20080;-79
2021/06/04 03:10:13;;;;;;;18.13;12.25;;;14.00;99.90;;;;;;4992746;28;20042;-79
2021/06/04 03:12:43;;;;;;;19.08;12.05;;;14.00;99.90;;;;;;4993909;28;20030;-79
2021/06/04 03:15:31;;;;;;;20.10;12.82;;;14.10;99.90;;;;;;4999398;28;20030;-79
2021/06/04 03:17:58;;;;;;;19.27;12.18;;;14.10;99.90;;;;;;5012958;28;20077;-78
2021/06/04 03:20:30;;;;;;;20.75;12.18;;;14.10;99.90;;;;;;5013393;28;20065;-79
2021/06/04 03:22:56;;;;;;;19.02;11.93;;;14.10;99.90;;;;;;5012821;28;20026;-79
2021/06/04 03:25:43;;;;;;;18.00;10.40;;;14.10;99.90;;;;;;5012832;28;20054;-79
2021/06/04 03:28:11;;;;;;;18.80;12.10;;;14.20;99.90;;;;;;5013141;28;20037;-79
2021/06/04 03:30:40;;;;;;;28.52;13.65;;;14.20;99.90;;;;;;5012831;28;20038;-78
2021/06/04 03:33:08;;;;;;;19.33;12.50;;;14.10;99.90;;;;;;5013059;28;20402;-79
2021/06/04 03:35:34;;;;;;;20.13;11.85;;;14.20;99.90;;;;;;5012586;28;20030;-78
2021/06/04 03:38:00;;;;;;;28.75;13.90;;;14.20;99.90;;;;;;5011449;28;20048;-79
2021/06/04 03:40:29;;;;;;;20.27;11.55;;;14.20;99.90;;;;;;5012818;28;20026;-79
2021/06/04 03:42:57;;;;;;;15.98;10.68;;;14.20;99.90;;;;;;5011612;28;20025;-79
2021/06/04 03:45:28;;;;;;;18.60;11.50;;;14.30;99.90;;;;;;5012309;28;20068;-79
2021/06/04 03:47:54;;;;;;;22.15;13.18;;;14.20;99.90;;;;;;5012741;28;20398;-79
2021/06/04 03:50:19;;;;;;;22.58;12.73;;;14.30;99.90;;;;;;5012736;28;20037;-79
2021/06/04 03:52:45;;;;;;;22.83;12.93;;;14.30;99.90;;;;;;5012745;28;20482;-79
2021/06/04 03:55:14;;;;;;;21.88;13.80;;;14.30;99.90;;;;;;5012173;28;20037;-78
2021/06/04 03:57:41;;;;;;;21.30;12.68;;;14.50;99.90;;;;;;5012531;28;20428;-79
2021/06/04 04:00:19;;;;;;;24.35;13.40;;;14.30;99.90;;;;;;5012624;28;20021;-79
2021/06/04 04:02:45;;;;;;;19.63;12.13;;;14.30;99.90;;;;;;5012510;28;20068;-79
2021/06/04 04:05:12;;;;;;;23.98;12.25;;;14.30;99.90;;;;;;5010827;28;20057;-79
2021/06/04 04:07:38;;;;;;;20.48;12.02;;;14.30;99.90;;;;;;5012267;28;20029;-79
2021/06/04 04:10:06;;;;;;;26.67;12.35;;;14.30;99.90;;;;;;5012427;28;20033;-79
2021/06/04 04:12:32;;;;;;;19.90;11.02;;;14.30;99.90;;;;;;5012338;28;20034;-79
2021/06/04 04:14:58;;;;;;;17.75;11.73;;;14.40;99.90;;;;;;5011870;28;20087;-79
2021/06/04 04:17:23;;;;;;;17.15;11.77;;;14.40;99.90;;;;;;5010948;28;20402;-79
2021/06/04 04:19:50;;;;;;;38.10;14.93;;;14.40;99.90;;;;;;5012297;28;20509;-79
2021/06/04 04:22:16;;;;;;;13.52;10.35;;;14.50;99.90;;;;;;5012218;28;20030;-79
2021/06/04 04:24:41;;;;;;;18.98;12.18;;;14.50;99.90;;;;;;5012015;28;20362;-79
2021/06/04 04:27:08;;;;;;;17.55;12.25;;;14.60;99.90;;;;;;5010597;28;20452;-79
2021/06/04 04:29:34;;;;;;;20.88;11.95;;;14.60;99.90;;;;;;5011905;28;20057;-79
2021/06/04 04:32:02;;;;;;;25.65;13.10;;;14.70;99.90;;;;;;5012172;28;20061;-79
2021/06/04 04:34:29;;;;;;;23.73;13.23;;;14.70;99.90;;;;;;5011003;28;20541;-79
2021/06/04 04:36:58;;;;;;;29.50;13.02;;;14.80;99.90;;;;;;5011577;28;20077;-79
2021/06/04 04:39:33;;;;;;;24.08;13.15;;;14.80;99.90;;;;;;5012123;28;20030;-79
2021/06/04 04:41:59;;;;;;;29.55;14.15;;;14.90;99.90;;;;;;5012070;28;20030;-79
2021/06/04 04:44:30;;;;;;;20.23;13.25;;;14.90;99.90;;;;;;5010384;28;20060;-79
2021/06/04 04:46:57;;;;;;;28.48;13.50;;;14.90;99.90;;;;;;4991167;28;20081;-78
2021/06/04 04:49:23;;;;;;;20.70;12.75;;;14.90;99.90;;;;;;4992419;28;20021;-79
2021/06/04 04:51:48;;;;;;;21.70;13.50;;;14.90;99.90;;;;;;4992420;28;20109;-79
2021/06/04 04:54:14;;;;;;;27.45;12.70;;;14.90;99.90;;;;;;4991112;28;20018;-79
2021/06/04 04:56:40;;;;;;;26.52;13.45;;;14.90;99.90;;;;;;5010344;28;20394;-79
2021/06/04 04:59:07;;;;;;;31.98;13.95;;;14.80;99.90;;;;;;5010604;28;20084;-79
2021/06/04 05:01:33;;;;;;;26.48;14.30;;;14.80;99.90;;;;;;5011641;28;20058;-79
2021/06/04 05:03:59;;;;;;;24.55;14.57;;;14.70;99.90;;;;;;5010442;28;20030;-79
2021/06/04 05:06:25;;;;;;;16.67;13.27;;;14.70;99.90;;;;;;5011680;28;20413;-79
2021/06/04 05:08:51;;;;;;;19.52;13.52;;;14.70;99.90;;;;;;5011564;28;20026;-79
2021/06/04 05:11:17;;;;;;;27.33;12.52;;;14.70;99.90;;;;;;5011997;28;20018;-79
2021/06/04 05:13:43;;;;;;;25.67;13.73;;;14.70;99.90;;;;;;5011592;28;20113;-79
2021/06/04 05:16:09;;;;;;;24.63;13.40;;;14.70;99.90;;;;;;5009947;28;20030;-79
2021/06/04 05:18:36;;;;;;;23.45;13.82;;;14.60;99.90;;;;;;5011286;28;20030;-79
2021/06/04 05:21:05;;;;;;;20.48;14.25;;;14.60;99.90;;;;;;5011442;28;20029;-80
2021/06/04 05:23:30;;;;;;;23.75;13.38;;;14.70;99.90;;;;;;5000508;28;20026;-80
2021/06/04 05:25:56;;;;;;;22.85;14.25;;;14.80;99.90;;;;;;5006517;28;20025;-79
2021/06/04 05:28:25;;;;;;;21.80;13.55;;;14.80;99.90;;;;;;5007174;28;20125;-80
2021/06/04 05:30:54;;;;;;;23.63;14.65;;;14.80;99.90;;;;;;5006330;28;20049;-81
2021/06/04 05:33:24;;;;;;;29.15;16.15;;;14.90;99.90;;;;;;5007163;28;20052;-81
2021/06/04 05:35:51;;;;;;;30.08;13.82;;;14.90;99.90;;;;;;5006718;28;20064;-80
2021/06/04 05:38:18;;;;;;;21.33;13.65;;;15.00;99.90;;;;;;5006927;28;20457;-80
2021/06/04 05:40:46;;;;;;;19.80;12.77;;;15.10;99.90;;;;;;5005282;28;20057;-80
2021/06/04 05:43:17;;;;;;;26.45;14.05;;;15.30;99.90;;;;;;5005695;28;20025;-81
2021/06/04 05:45:44;;;;;;;23.13;12.43;;;15.40;99.90;;;;;;5007138;28;20087;-80
2021/06/04 05:48:12;;;;;;;26.15;14.90;;;15.50;99.90;;;;;;5010596;28;20029;-80
2021/06/04 05:50:40;;;;;;;20.85;11.98;;;15.50;99.90;;;;;;5008918;28;20553;-80
2021/06/04 05:53:08;;;;;;;18.85;11.05;;;15.50;99.90;;;;;;5010360;28;20036;-80
2021/06/04 05:55:36;;;;;;;19.00;11.65;;;15.60;99.90;;;;;;5009924;28;20025;-80
2021/06/04 05:58:04;;;;;;;22.40;12.13;;;15.80;99.90;;;;;;5008933;28;20053;-81
2021/06/04 06:00:35;;;;;;;15.50;10.95;;;16.10;99.90;;;;;;5007991;28;20026;-81
2021/06/04 06:03:01;;;;;;;25.17;13.13;;;16.40;99.90;;;;;;5010268;28;20036;-81
2021/06/04 06:05:26;;;;;;;22.50;11.25;;;16.60;99.90;;;;;;5009861;28;20022;-80
2021/06/04 06:07:53;;;;;;;19.85;10.70;;;16.80;99.90;;;;;;5010205;28;20034;-81
2021/06/04 06:10:18;;;;;;;28.58;11.20;;;17.10;99.90;;;;;;5008478;28;20052;-81
2021/06/04 06:12:44;;;;;;;20.38;10.57;;;17.10;99.90;;;;;;5008711;28;20482;-81
2021/06/04 06:15:10;;;;;;;18.85;8.82;;;17.10;99.90;;;;;;5009402;28;20029;-81
2021/06/04 06:17:36;;;;;;;16.08;9.80;;;17.20;99.90;;;;;;5008735;28;20467;-82
2021/06/04 06:20:09;;;;;;;19.33;10.40;;;17.20;99.90;;;;;;5010222;28;20033;-81
2021/06/04 06:22:35;;;;;;;19.02;9.27;;;17.10;99.90;;;;;;5010953;28;20494;-80
2021/06/04 06:25:01;;;;;;;17.90;9.48;;;17.10;99.90;;;;;;5013863;28;20033;-80
2021/06/04 06:27:26;;;;;;;21.77;10.75;;;17.20;99.90;;;;;;5012705;28;20429;-79
2021/06/04 06:29:52;;;;;;;20.58;8.95;;;17.20;99.90;;;;;;5012510;28;20026;-80
2021/06/04 06:32:20;;;;;;;20.40;10.93;;;17.30;99.90;;;;;;5014134;28;20030;-79
2021/06/04 06:34:50;;;;;;;11.05;7.53;;;17.40;99.90;;;;;;5013782;28;20408;-79
2021/06/04 06:37:15;;;;;;;15.60;9.82;;;17.40;99.90;;;;;;5013569;28;20056;-79
2021/06/04 06:39:41;;;;;;;12.60;8.57;;;17.50;99.90;;;;;;5029063;28;20022;-80
2021/06/04 06:42:11;;;;;;;16.17;9.35;;;17.70;99.90;;;;;;5013620;28;20034;-80
2021/06/04 06:44:37;;;;;;;17.88;9.20;;;17.90;99.90;;;;;;5012161;28;20053;-80
2021/06/04 06:47:03;;;;;;;18.33;9.18;;;18.00;99.90;;;;;;5013707;28;20056;-80
2021/06/04 06:49:29;;;;;;;15.50;9.40;;;18.20;99.90;;;;;;5012597;28;20028;-80
2021/06/04 06:51:55;;;;;;;16.17;9.52;;;18.30;99.90;;;;;;5012196;28;20030;-80
2021/06/04 06:54:27;;;;;;;17.63;8.95;;;18.30;99.90;;;;;;5013418;28;20096;-80
2021/06/04 06:56:55;;;;;;;15.13;9.00;;;18.40;99.90;;;;;;5012329;28;20376;-79
2021/06/04 06:59:24;;;;;;;19.55;9.07;;;18.60;99.90;;;;;;5012795;28;20026;-79
2021/06/04 07:01:50;;;;;;;15.60;10.05;;;19.00;99.90;;;;;;5024722;28;20082;-79
2021/06/04 07:04:15;;;;;;;18.42;8.60;;;19.20;99.90;;;;;;5013034;28;20029;-80
2021/06/04 07:06:42;;;;;;;12.20;7.97;;;19.50;99.90;;;;;;5024598;28;20098;-78
2021/06/04 07:09:13;;;;;;;17.45;8.45;;;19.60;99.90;;;;;;5011881;28;20462;-80
2021/06/04 07:11:42;;;;;;;14.50;8.25;;;19.70;99.90;;;;;;5013417;28;20185;-80
2021/06/04 07:14:09;;;;;;;14.82;8.45;;;19.70;99.90;;;;;;5013103;28;20022;-79
2021/06/04 07:16:36;;;;;;;11.93;7.88;;;19.80;99.90;;;;;;5009368;28;20030;-79
2021/06/04 07:19:04;;;;;;;12.45;8.32;;;20.10;99.90;;;;;;5013136;28;20121;-79
2021/06/04 07:21:30;;;;;;;15.48;8.70;;;20.30;99.90;;;;;;5013193;28;20041;-79
2021/06/04 07:23:56;;;;;;;32.67;9.90;;;20.40;99.90;;;;;;5012838;28;20323;-80
2021/06/04 07:26:22;;;;;;;17.10;9.13;;;20.50;99.90;;;;;;5013363;28;20033;-80
2021/06/04 07:28:49;;;;;;;19.42;8.60;;;20.50;99.90;;;;;;5012121;28;20033;-78
2021/06/04 07:31:16;;;;;;;12.95;8.80;;;20.50;99.90;;;;;;5013475;28;20018;-79
2021/06/04 07:33:45;;;;;;;11.88;7.60;;;20.50;99.90;;;;;;5009966;28;20454;-80
2021/06/04 07:36:19;;;;;;;16.50;8.15;;;20.70;99.90;;;;;;5011502;28;20034;-80
2021/06/04 07:38:45;;;;;;;12.15;7.60;;;20.90;99.90;;;;;;5012735;28;20112;-80
2021/06/04 07:41:11;;;;;;;14.50;8.73;;;21.10;99.90;;;;;;5012748;28;20113;-80
2021/06/04 07:43:39;;;;;;;16.52;9.07;;;21.20;99.90;;;;;;5001305;28;20065;-81
2021/06/04 07:46:07;;;;;;;11.63;7.88;;;21.50;99.90;;;;;;5008512;28;20026;-81
2021/06/04 07:48:34;;;;;;;10.38;7.05;;;21.90;99.90;;;;;;5006694;28;20542;-81
2021/06/04 07:51:00;;;;;;;11.38;8.43;;;22.00;99.90;;;;;;5001248;28;20068;-80
2021/06/04 07:53:31;;;;;;;17.77;9.07;;;22.10;99.90;;;;;;5008176;28;20045;-80
2021/06/04 07:55:56;;;;;;;13.68;8.23;;;22.30;99.90;;;;;;5008340;28;20040;-83
2021/06/04 07:58:22;;;;;;;12.90;7.88;;;22.30;99.90;;;;;;5003125;28;20033;-83
2021/06/04 08:00:48;;;;;;;10.90;7.15;;;22.50;99.90;;;;;;5006944;28;20108;-81
2021/06/04 08:03:18;;;;;;;15.00;6.88;;;22.70;99.90;;;;;;5006678;28;20034;-82
2021/06/04 08:05:44;;;;;;;16.40;7.90;;;22.60;99.90;;;;;;5007829;28;20060;-82
2021/06/04 08:08:10;;;;;;;13.30;7.80;;;22.60;99.90;;;;;;5008100;28;20116;-82
2021/06/04 08:10:38;;;;;;;15.35;8.75;;;22.80;99.90;;;;;;5008275;28;20026;-82
2021/06/04 08:13:05;;;;;;;11.25;7.13;;;23.20;99.90;;;;;;5006406;28;20073;-83
2021/06/04 08:15:35;;;;;;;9.70;6.20;;;23.40;99.90;;;;;;5007917;28;20022;-83
2021/06/04 08:18:01;;;;;;;11.77;8.68;;;23.80;99.90;;;;;;5006131;28;20080;-82
2021/06/04 08:20:30;;;;;;;19.17;7.57;;;23.80;99.90;;;;;;5006676;28;20037;-81
2021/06/04 08:23:00;;;;;;;12.15;7.90;;;23.80;99.90;;;;;;5014267;28;20064;-82
2021/06/04 08:25:30;;;;;;;10.95;6.65;;;23.90;99.90;;;;;;5007419;28;20030;-82
2021/06/04 08:27:56;;;;;;;9.18;6.20;;;24.20;99.90;;;;;;5009723;28;20514;-82
2021/06/04 08:30:23;;;;;;;13.20;6.90;;;24.30;99.90;;;;;;5012239;28;20022;-82
2021/06/04 08:32:49;;;;;;;14.18;7.57;;;24.40;99.90;;;;;;5011629;28;20371;-82
2021/06/04 08:35:15;;;;;;;21.77;7.90;;;24.40;99.90;;;;;;5010682;28;20022;-83
2021/06/04 08:37:41;;;;;;;11.60;6.18;;;24.30;99.90;;;;;;5011982;28;20493;-83
2021/06/04 08:40:12;;;;;;;11.43;7.88;;;24.30;99.90;;;;;;5010759;28;20114;-82
2021/06/04 08:43:16;;;;;;;11.98;7.18;;;24.40;99.90;;;;;;5012086;28;20025;-82
2021/06/04 08:46:03;;;;;;;14.52;6.53;;;24.40;99.90;;;;;;4992274;28;20097;-82
2021/06/04 08:48:47;;;;;;;12.93;8.45;;;24.50;99.90;;;;;;4991940;28;20037;-82
2021/06/04 08:51:35;;;;;;;13.00;7.45;;;24.40;99.90;;;;;;4991092;28;20105;-82
2021/06/04 08:54:30;;;;;;;12.00;7.25;;;24.50;99.90;;;;;;4998684;28;20542;-82
2021/06/04 08:57:11;;;;;;;11.35;6.30;;;24.70;99.90;;;;;;5011509;28;20037;-82
2021/06/04 08:59:38;;;;;;;11.52;7.88;;;24.90;99.90;;;;;;4991094;28;20057;-82
2021/06/04 09:02:10;;;;;;;11.40;7.15;;;24.80;99.90;;;;;;5023659;28;20086;-81
2021/06/04 09:04:44;;;;;;;12.35;8.10;;;25.20;99.90;;;;;;5010123;28;20414;-83
2021/06/04 09:07:18;;;;;;;13.35;6.50;;;25.20;99.90;;;;;;5011806;28;20168;-82
2021/06/04 09:10:04;;;;;;;10.98;7.38;;;25.40;99.90;;;;;;5011377;28;20022;-83
2021/06/04 09:12:50;;;;;;;12.25;8.27;;;25.30;99.90;;;;;;5011814;28;20467;-83
2021/06/04 09:15:20;;;;;;;11.65;9.05;;;25.60;99.90;;;;;;5026220;28;20095;-83
2021/06/04 09:17:51;;;;;;;9.98;7.25;;;25.40;99.90;;;;;;5009874;28;20037;-83
2021/06/04 09:20:27;;;;;;;14.38;7.57;;;25.50;99.90;;;;;;5012023;28;20129;-83
2021/06/04 09:22:58;;;;;;;14.63;9.68;;;25.80;99.90;;;;;;5014187;28;20444;-82
2021/06/04 09:25:25;;;;;;;10.25;7.45;;;25.80;99.90;;;;;;5013679;28;20026;-83
2021/06/04 09:28:11;;;;;;;11.95;8.30;;;25.80;99.90;;;;;;5014860;28;20029;-83
2021/06/04 09:30:39;;;;;;;13.90;7.45;;;25.70;99.90;;;;;;5015054;28;20722;-81
2021/06/04 09:33:17;;;;;;;14.77;8.50;;;25.90;99.90;;;;;;5015040;28;20022;-81
2021/06/04 09:36:08;;;;;;;14.13;9.63;;;26.20;99.90;;;;;;5010132;28;20084;-81
2021/06/04 09:38:48;;;;;;;12.18;7.25;;;26.30;99.90;;;;;;5012782;28;20034;-82
2021/06/04 09:41:26;;;;;;;12.02;8.10;;;26.40;99.90;;;;;;5013932;28;20061;-82
2021/06/04 09:44:17;;;;;;;7.90;6.80;;;26.50;99.90;;;;;;5010797;28;20110;-82
2021/06/04 09:46:48;;;;;;;10.15;7.30;;;26.80;99.90;;;;;;5010368;28;20100;-82
2021/06/04 09:49:33;;;;;;;13.13;7.55;;;27.00;99.90;;;;;;5010280;28;20030;-83
2021/06/04 09:52:20;;;;;;;15.40;8.98;;;27.10;99.90;;;;;;5011070;28;21574;-82
2021/06/04 09:54:47;;;;;;;12.82;8.82;;;27.30;99.90;;;;;;5010430;28;20029;-81
2021/06/04 09:57:17;;;;;;;14.73;8.27;;;27.20;99.90;;;;;;5008428;28;20503;-82
2021/06/04 09:59:44;;;;;;;9.98;7.43;;;27.40;99.90;;;;;;5013383;28;20506;-81
2021/06/04 10:02:36;;;;;;;14.20;8.40;;;27.20;99.90;;;;;;5010455;28;20080;-80
2021/06/04 10:05:16;;;;;;;13.00;8.80;;;27.30;99.90;;;;;;5010603;28;20023;-81
2021/06/04 10:07:43;;;;;;;15.25;8.63;;;27.20;99.90;;;;;;5010658;28;20030;-79
2021/06/04 10:10:22;;;;;;;8.15;6.28;;;27.00;99.90;;;;;;5009525;28;20030;-80
2021/06/04 10:12:52;;;;;;;12.38;8.73;;;27.30;99.90;;;;;;5008947;28;20080;-80
2021/06/04 10:15:46;;;;;;;10.95;7.55;;;27.40;99.90;;;;;;5010085;28;20030;-82
2021/06/04 10:18:32;;;;;;;9.02;5.65;;;27.60;99.90;;;;;;5010114;28;20025;-82
2021/06/04 10:21:32;;;;;;;14.90;9.32;;;28.00;99.90;;;;;;5010267;28;20510;-82
2021/06/04 10:24:01;;;;;;;12.90;6.78;;;27.90;99.90;;;;;;5003508;28;20083;-82
2021/06/04 10:26:36;;;;;;;12.25;8.32;;;28.30;99.90;;;;;;5008619;28;20091;-83
2021/06/04 10:29:08;;;;;;;9.95;7.10;;;28.30;99.90;;;;;;5010993;28;21234;-82
2021/06/04 10:32:14;;;;;;;16.92;8.38;;;28.10;99.90;;;;;;5011166;28;20038;-86
2021/06/04 10:34:52;;;;;;;14.55;7.53;;;28.30;99.90;;;;;;4991224;28;20046;-83
2021/06/04 10:37:47;;;;;;;9.27;6.32;;;28.70;99.90;;;;;;5009484;28;20037;-82
2021/06/04 10:40:33;;;;;;;11.40;6.03;;;28.90;99.90;;;;;;5009635;28;20057;-85
2021/06/04 10:43:11;;;;;;;16.67;8.05;;;28.90;99.90;;;;;;5010742;28;20537;-84
2021/06/04 10:45:48;;;;;;;13.55;7.60;;;28.90;99.90;;;;;;5009311;28;20056;-84
2021/06/04 10:48:58;;;;;;;11.88;6.80;;;28.70;99.90;;;;;;5009562;28;20021;-84
2021/06/04 10:51:29;;;;;;;10.43;7.55;;;28.10;99.90;;;;;;4996349;28;20048;-84
2021/06/04 10:54:14;;;;;;;13.98;8.05;;;28.00;99.90;;;;;;5008008;28;20021;-86
2021/06/04 10:57:04;;;;;;;10.45;6.10;;;28.30;99.90;;;;;;5006215;28;20088;-85
2021/06/04 10:59:40;;;;;;;13.70;5.85;;;28.80;99.90;;;;;;5002824;28;20038;-84
2021/06/04 11:02:16;;;;;;;10.65;6.20;;;29.50;99.90;;;;;;5003045;28;20022;-84
2021/06/04 11:05:10;;;;;;;10.07;6.72;;;29.40;99.90;;;;;;5009376;28;20417;-85
2021/06/04 11:07:50;;;;;;;7.40;5.45;;;29.10;99.90;;;;;;5008025;28;20030;-83
2021/06/04 11:10:38;;;;;;;7.63;6.43;;;28.60;99.90;;;;;;5008871;28;20363;-84
2021/06/04 11:13:22;;;;;;;7.28;5.75;;;28.90;99.90;;;;;;5025014;28;20026;-84
2021/06/04 11:16:16;;;;;;;7.50;6.63;;;29.30;99.90;;;;;;5002462;28;20076;-84
2021/06/04 11:18:50;;;;;;;;;;;29.40;99.90;;;;;;5009873;28;20088;-84
2021/06/04 11:21:25;;;;;;;8.93;6.25;;;29.00;99.90;;;;;;5008696;28;20156;-84
2021/06/04 11:24:28;;;;;;;10.43;7.13;;;28.80;99.90;;;;;;5009668;28;20564;-84
2021/06/04 11:26:55;;;;;;;9.68;7.45;;;28.30;99.90;;;;;;4963333;28;20146;-85
2021/06/04 11:29:39;;;;;;;16.65;8.85;;;27.70;99.90;;;;;;4998072;28;20030;-86
2021/06/04 11:32:19;;;;;;;11.80;6.93;;;27.40;99.90;;;;;;5008289;28;20033;-85
2021/06/04 11:35:04;;;;;;;13.38;6.93;;;27.40;99.90;;;;;;5007517;28;20026;-85
2021/06/04 11:37:42;;;;;;;9.40;7.38;;;27.20;99.90;;;;;;5009273;28;20066;-86
2021/06/04 11:40:21;;;;;;;11.63;7.30;;;26.90;99.90;;;;;;5008225;28;20551;-85
2021/06/04 11:42:54;;;;;;;15.45;8.20;;;26.90;99.90;;;;;;5009559;28;20026;-84
2021/06/04 11:45:22;;;;;;;9.95;6.68;;;26.90;99.90;;;;;;5009290;28;20034;-85
2021/06/04 11:47:49;;;;;;;12.82;6.82;;;27.00;99.90;;;;;;5007800;28;20130;-85
2021/06/04 11:50:25;;;;;;;14.68;7.90;;;27.10;99.90;;;;;;5009310;28;20029;-84
2021/06/04 11:52:57;;;;;;;11.55;8.55;;;26.90;99.90;;;;;;5008411;28;20030;-86
2021/06/04 11:55:26;;;;;;;10.55;8.02;;;26.50;99.90;;;;;;5008190;28;20037;-85
2021/06/04 11:58:29;;;;;;;13.32;7.65;;;26.30;99.90;;;;;;5004738;28;20061;-84
2021/06/04 12:01:13;;;;;;;12.15;7.65;;;26.20;99.90;;;;;;5009032;28;20033;-86
2021/06/04 12:03:43;;;;;;;7.35;5.97;;;26.10;99.90;;;;;;5001135;28;20026;-84
2021/06/04 12:06:25;;;;;;;9.27;7.18;;;26.10;99.90;;;;;;5001235;28;20376;-84
2021/06/04 12:08:52;;;;;;;11.73;7.07;;;26.10;99.90;;;;;;5009122;28;20470;-83
2021/06/04 12:11:17;;;;;;;15.63;7.72;;;26.30;99.90;;;;;;5009373;28;20041;-82
2021/06/04 12:13:49;;;;;;;13.45;7.75;;;26.30;99.90;;;;;;5008831;28;20604;-83
2021/06/04 12:16:27;;;;;;;10.43;7.68;;;26.20;99.90;;;;;;5007778;28;20125;-83
2021/06/04 12:19:04;;;;;;;11.95;8.65;;;26.10;99.90;;;;;;5008796;28;20033;-84
2021/06/04 12:21:42;;;;;;;8.95;6.15;;;25.80;99.90;;;;;;5007811;28;20029;-83
2021/06/04 12:24:34;;;;;;;10.80;7.35;;;26.00;99.90;;;;;;5008767;28;20018;-84
2021/06/04 12:27:11;;;;;;;9.43;7.43;;;26.40;99.90;;;;;;5003190;28;20030;-83
2021/06/04 12:29:51;;;;;;;11.82;6.43;;;26.20;99.90;;;;;;5002013;28;20033;-82
2021/06/04 12:32:38;;;;;;;12.25;8.40;;;26.30;99.90;;;;;;5007717;28;20816;-84
2021/06/04 12:35:06;;;;;;;12.15;8.55;;;26.30;99.90;;;;;;5003657;28;20052;-83
2021/06/04 12:37:37;;;;;;;13.00;6.28;;;26.20;99.90;;;;;;5008400;28;20037;-84
2021/06/04 12:40:15;;;;;;;9.52;7.18;;;26.30;99.90;;;;;;5023782;28;20465;-82
2021/06/04 12:43:15;;;;;;;9.85;7.05;;;26.20;99.90;;;;;;5008922;28;20025;-83
2021/06/04 12:45:54;;;;;;;13.38;8.10;;;26.30;99.90;;;;;;5000606;28;20023;-84
2021/06/04 12:48:40;;;;;;;12.00;7.60;;;26.40;99.90;;;;;;5008387;28;20034;-84
2021/06/04 12:51:17;;;;;;;17.30;7.95;;;26.40;99.90;;;;;;5007624;28;20115;-84
2021/06/04 12:53:48;;;;;;;15.75;9.93;;;26.50;99.90;;;;;;5008786;28;20156;-84
2021/06/04 12:56:13;;;;;;;13.13;7.88;;;26.30;99.90;;;;;;5006640;28;20030;-83
2021/06/04 12:59:04;;;;;;;12.77;7.53;;;26.20;99.90;;;;;;5010688;28;20025;-84
2021/06/04 13:01:51;;;;;;;17.42;9.48;;;26.60;99.90;;;;;;5012623;28;20014;-84